Time;durP1;ratioP1;P1;durP2;ratioP2;P2;SDS_P1;SDS_P2;PMS_P1;PMS_P2;Temp;Humidity;BMP_temperature;BMP_pressure;BME280_temperature;BME280_humidity;BME280_pressure;Samples;Min_cycle;Max_cycle;Signal;HPM_P1;HPM_P2
2022/08/30 00:01:27;;;;;;;18.70;6.10;;;;;;;29.57;59.47;101467.55;1763591;80;21046;-56
2022/08/30 00:03:54;;;;;;;16.73;6.67;;;;;;;29.55;59.55;101465.50;1763575;80;21529;-56
2022/08/30 00:06:22;;;;;;;20.32;5.47;;;;;;;29.53;59.64;101470.15;1756467;81;21008;-55
2022/08/30 00:08:49;;;;;;;12.78;5.28;;;;;;;29.52;59.62;101469.78;1758489;80;20999;-56
2022/08/30 00:11:22;;;;;;;14.40;5.92;;;;;;;29.51;59.70;101470.27;1764153;81;21071;-56
2022/08/30 00:13:50;;;;;;;12.63;5.62;;;;;;;29.51;59.85;101473.46;1764338;81;21490;-56
2022/08/30 00:16:18;;;;;;;18.85;6.35;;;;;;;29.50;60.01;101467.73;1765184;81;21010;-56
2022/08/30 00:18:45;;;;;;;16.77;5.85;;;;;;;29.49;60.16;101468.73;1764362;80;21490;-56
2022/08/30 00:21:12;;;;;;;13.70;5.05;;;;;;;29.55;60.00;101474.36;1763213;81;21058;-56
2022/08/30 00:23:39;;;;;;;16.10;5.85;;;;;;;29.56;59.99;101464.49;1777929;81;21542;-56
2022/08/30 00:26:06;;;;;;;20.23;5.97;;;;;;;29.56;60.04;101467.17;1761829;81;21093;-56
2022/08/30 00:28:35;;;;;;;14.58;5.50;;;;;;;29.55;60.04;101470.86;1764126;81;21058;-56
2022/08/30 00:31:01;;;;;;;15.40;6.12;;;;;;;29.55;60.03;101471.68;1762534;81;21065;-56
2022/08/30 00:33:29;;;;;;;16.82;5.15;;;;;;;29.55;60.01;101473.54;1766317;81;21008;-56
2022/08/30 00:35:56;;;;;;;15.43;5.80;;;;;;;29.55;60.15;101474.88;1766548;80;21003;-56
2022/08/30 00:38:23;;;;;;;14.75;5.72;;;;;;;29.54;60.31;101477.19;1752995;80;21023;-56
2022/08/30 00:40:49;;;;;;;19.50;5.50;;;;;;;29.54;60.44;101475.84;1771219;80;21073;-56
2022/08/30 00:43:26;;;;;;;13.75;5.22;;;;;;;29.54;60.61;101475.84;1765510;81;21472;-56
2022/08/30 00:45:52;;;;;;;12.47;5.05;;;;;;;29.54;60.73;101475.84;1769219;81;21065;-57
2022/08/30 00:48:19;;;;;;;17.50;5.83;;;;;;;29.58;60.61;101477.27;1778973;81;21026;-56
2022/08/30 00:50:51;;;;;;;15.80;5.40;;;;;;;29.58;60.55;101474.59;1767958;80;21506;-55
2022/08/30 00:53:25;;;;;;;17.85;6.58;;;;;;;29.58;60.58;101478.61;1766629;80;21557;-56
2022/08/30 00:55:52;;;;;;;18.52;6.62;;;;;;;29.53;60.65;101475.52;1774504;80;21066;-56
2022/08/30 00:58:21;;;;;;;20.97;6.25;;;;;;;29.54;60.66;101473.17;1742125;81;21502;-56
2022/08/30 01:00:50;;;;;;;16.50;6.55;;;;;;;29.50;60.74;101473.09;1767301;81;21530;-56
2022/08/30 01:03:17;;;;;;;17.62;6.28;;;;;;;29.49;60.77;101472.75;1765200;81;21499;-56
2022/08/30 01:05:45;;;;;;;20.43;6.03;;;;;;;29.48;60.86;101475.92;1766631;81;21086;-56
2022/08/30 01:08:12;;;;;;;15.10;6.12;;;;;;;29.48;60.91;101477.74;1754155;81;21515;-55
2022/08/30 01:10:40;;;;;;;17.30;6.08;;;;;;;29.49;60.82;101474.91;1763413;81;21026;-56
2022/08/30 01:13:08;;;;;;;18.62;6.90;;;;;;;29.43;60.91;101474.64;1762185;81;21070;-56
2022/08/30 01:15:34;;;;;;;18.10;6.35;;;;;;;29.39;60.99;101471.84;1753543;81;21018;-55
2022/08/30 01:18:02;;;;;;;19.50;6.20;;;;;;;29.45;60.80;101471.33;1773190;80;21019;-56
2022/08/30 01:21:02;;;;;;;14.55;6.20;;;;;;;29.47;60.77;101474.20;1765658;81;21490;-56
2022/08/30 01:23:29;;;;;;;18.37;7.47;;;;;;;29.47;60.67;101472.04;1760136;81;20991;-56
2022/08/30 01:25:55;;;;;;;16.95;7.08;;;;;;;29.45;60.58;101471.33;1767042;80;21035;-55
2022/08/30 01:28:25;;;;;;;19.25;7.20;;;;;;;29.44;60.51;101468.28;1764184;80;21007;-56
2022/08/30 01:30:52;;;;;;;18.42;8.33;;;;;;;29.42;60.49;101467.57;1765193;81;20975;-56
2022/08/30 01:33:19;;;;;;;23.50;6.97;;;;;;;29.42;60.58;101468.91;1761022;81;21533;-55
2022/08/30 01:35:55;;;;;;;20.30;6.22;;;;;;;29.41;60.50;101471.22;1777943;81;21065;-56
2022/08/30 01:38:35;;;;;;;20.70;6.50;;;;;;;29.39;60.45;101467.83;1774476;81;21094;-56
2022/08/30 01:41:27;;;;;;;24.57;6.85;;;;;;;29.39;60.35;101473.19;1741890;82;21090;-56
2022/08/30 01:43:56;;;;;;;24.98;7.00;;;;;;;29.28;60.39;101470.15;1681632;84;21104;-56
2022/08/30 01:46:26;;;;;;;21.75;7.80;;;;;;;29.34;59.92;101478.13;1687166;84;21068;-55
2022/08/30 01:48:54;;;;;;;19.62;7.75;;;;;;;29.32;59.76;101474.73;1685721;84;21500;-56
2022/08/30 01:51:24;;;;;;;25.30;7.87;;;;;;;29.30;59.77;101479.39;1684348;84;21036;-56
2022/08/30 01:53:51;;;;;;;20.32;6.67;;;;;;;29.27;59.74;101479.64;1687209;84;21032;-55
2022/08/30 01:56:17;;;;;;;17.62;6.03;;;;;;;29.25;59.73;101474.91;1684502;84;21044;-56
2022/08/30 01:58:44;;;;;;;13.08;6.00;;;;;;;29.23;59.74;101475.54;1684384;84;21528;-55
2022/08/30 02:01:14;;;;;;;16.45;5.97;;;;;;;29.23;59.81;101480.91;1684304;84;21116;-55
2022/08/30 02:03:41;;;;;;;20.43;6.72;;;;;;;29.21;59.87;101473.48;1684589;84;21524;-55
2022/08/30 02:06:11;;;;;;;18.85;6.50;;;;;;;29.22;59.97;101475.20;1684392;84;21021;-56
2022/08/30 02:08:39;;;;;;;16.00;5.72;;;;;;;29.20;60.07;101473.15;1686375;84;21024;-56
2022/08/30 02:11:08;;;;;;;21.00;6.08;;;;;;;29.18;60.15;101471.92;1687171;84;21076;-56
2022/08/30 02:13:37;;;;;;;14.13;5.60;;;;;;;29.18;60.21;101471.92;1683327;84;21029;-56
2022/08/30 02:16:06;;;;;;;23.70;6.53;;;;;;;29.18;60.19;101476.45;1678190;84;21012;-56
2022/08/30 02:18:34;;;;;;;9.85;4.35;;;;;;;29.18;60.15;101475.12;1691986;83;20999;-56
2022/08/30 02:21:01;;;;;;;12.78;5.72;;;;;;;29.16;60.27;101474.41;1759578;81;21026;-56
2022/08/30 02:23:28;;;;;;;16.40;5.80;;;;;;;29.17;60.43;101472.06;1761746;81;21093;-56
2022/08/30 02:25:54;;;;;;;15.50;5.75;;;;;;;29.16;60.55;101467.19;1764418;81;20987;-56
2022/08/30 02:28:22;;;;;;;12.98;5.47;;;;;;;29.17;60.49;101471.58;1777579;81;21058;-56
2022/08/30 02:30:48;;;;;;;16.67;5.80;;;;;;;29.17;60.46;101462.69;1762780;81;21017;-56
2022/08/30 02:33:15;;;;;;;14.63;5.87;;;;;;;29.16;60.51;101469.05;1767685;81;20983;-56
2022/08/30 02:35:42;;;;;;;17.25;5.53;;;;;;;29.16;60.73;101468.53;1765806;80;20987;-56
2022/08/30 02:38:09;;;;;;;15.85;6.40;;;;;;;29.16;60.90;101471.72;1778960;80;21034;-56
2022/08/30 02:40:36;;;;;;;12.47;5.17;;;;;;;29.17;61.08;101468.05;1766541;81;21030;-56
2022/08/30 02:43:03;;;;;;;15.72;5.85;;;;;;;29.17;61.17;101466.22;1767399;80;21474;-56
2022/08/30 02:45:29;;;;;;;16.75;5.62;;;;;;;29.18;61.25;101468.41;1757468;81;21094;-56
2022/08/30 02:47:56;;;;;;;20.30;5.92;;;;;;;29.22;61.17;101469.84;1768769;81;21046;-56
2022/08/30 02:50:24;;;;;;;18.45;5.85;;;;;;;29.20;61.27;101473.15;1769576;81;21019;-56
2022/08/30 02:52:51;;;;;;;22.05;5.15;;;;;;;29.21;61.33;101469.47;1764741;81;21026;-56
2022/08/30 02:55:18;;;;;;;12.03;5.67;;;;;;;29.20;61.45;101467.78;1767488;81;21006;-55
2022/08/30 02:57:45;;;;;;;21.25;6.40;;;;;;;29.20;61.53;101473.15;1768231;81;21027;-56
2022/08/30 03:00:15;;;;;;;12.28;6.15;;;;;;;29.18;61.64;101469.75;1767570;81;21067;-56
2022/08/30 03:02:41;;;;;;;13.95;6.53;;;;;;;29.19;61.62;101469.61;1765344;81;21035;-56
2022/08/30 03:05:09;;;;;;;15.90;5.72;;;;;;;29.19;61.65;101469.61;1766808;81;21071;-55
2022/08/30 03:07:37;;;;;;;19.55;5.75;;;;;;;29.20;61.64;101475.83;1766861;81;21011;-55
2022/08/30 03:10:05;;;;;;;16.73;5.78;;;;;;;29.20;61.61;101473.15;1769362;81;21050;-56
2022/08/30 03:12:34;;;;;;;11.83;5.72;;;;;;;29.20;61.55;101482.05;1766723;80;21073;-56
2022/08/30 03:15:01;;;;;;;13.98;6.35;;;;;;;29.20;61.45;101483.87;1766621;81;21510;-56
2022/08/30 03:17:28;;;;;;;18.32;5.83;;;;;;;29.18;61.12;101486.66;1770206;81;21015;-56
2022/08/30 03:19:57;;;;;;;14.90;5.67;;;;;;;29.17;60.89;101482.30;1764225;81;21019;-56
2022/08/30 03:22:23;;;;;;;12.93;5.15;;;;;;;29.16;60.83;101482.45;1769139;81;21525;-56
2022/08/30 03:24:50;;;;;;;15.68;5.67;;;;;;;29.14;60.96;101479.02;1769099;81;21007;-56
2022/08/30 03:27:17;;;;;;;14.80;5.55;;;;;;;29.11;60.91;101482.81;1767075;81;21130;-55
2022/08/30 03:29:44;;;;;;;12.33;5.22;;;;;;;29.11;60.88;101489.99;1769739;81;21062;-56
2022/08/30 03:32:10;;;;;;;15.38;6.03;;;;;;;29.10;61.06;101485.63;1767682;81;20995;-55
2022/08/30 03:34:38;;;;;;;18.77;5.60;;;;;;;29.09;61.23;101486.11;1767847;81;21514;-56
2022/08/30 03:37:04;;;;;;;13.25;5.35;;;;;;;29.09;61.39;101486.59;1764773;81;21047;-56
2022/08/30 03:39:32;;;;;;;22.67;6.17;;;;;;;29.10;61.50;101489.66;1766881;81;21549;-56
2022/08/30 03:41:59;;;;;;;14.58;5.53;;;;;;;29.10;61.59;101488.31;1767277;81;21447;-56
2022/08/30 03:44:25;;;;;;;14.95;5.92;;;;;;;29.11;61.76;101491.33;1767782;81;21026;-56
2022/08/30 03:46:52;;;;;;;17.30;6.45;;;;;;;29.12;61.84;101493.05;1787937;80;21034;-56
2022/08/30 03:49:19;;;;;;;12.40;6.33;;;;;;;29.13;61.92;101489.37;1779705;80;21725;-56
2022/08/30 03:51:47;;;;;;;19.02;5.85;;;;;;;29.14;62.06;101493.76;1785934;80;21502;-56
2022/08/30 03:54:14;;;;;;;14.28;5.58;;;;;;;29.15;62.10;101489.62;1792185;80;21041;-56
2022/08/30 03:56:40;;;;;;;16.50;6.28;;;;;;;29.17;62.29;101497.52;1789416;80;21033;-56
2022/08/30 03:59:07;;;;;;;16.95;6.30;;;;;;;29.18;62.30;101500.58;1774457;80;21511;-56
2022/08/30 04:01:34;;;;;;;14.25;6.15;;;;;;;29.20;62.34;101499.95;1777198;80;21026;-56
2022/08/30 04:04:02;;;;;;;16.52;6.55;;;;;;;29.21;62.32;101497.61;1786447;80;21482;-56
2022/08/30 04:06:29;;;;;;;14.93;6.58;;;;;;;29.21;62.41;101495.78;1789509;80;21053;-56
2022/08/30 04:08:56;;;;;;;17.37;5.87;;;;;;;29.23;62.50;101501.00;1788359;80;21494;-56
2022/08/30 04:11:23;;;;;;;19.50;7.65;;;;;;;29.25;62.49;101505.73;1788549;80;21005;-56
2022/08/30 04:13:50;;;;;;;16.65;7.83;;;;;;;29.26;62.51;101500.27;1779068;80;21494;-56
2022/08/30 04:16:20;;;;;;;15.95;7.05;;;;;;;29.28;62.51;101503.66;1782350;80;21014;-55
2022/08/30 04:18:47;;;;;;;16.40;6.37;;;;;;;29.32;62.71;101504.23;1779654;80;21053;-56
2022/08/30 04:21:14;;;;;;;17.00;7.53;;;;;;;29.36;62.77;101516.38;1784074;80;21514;-56
2022/08/30 04:23:42;;;;;;;17.80;6.78;;;;;;;29.37;62.83;101507.33;1776166;80;21498;-57
2022/08/30 04:26:08;;;;;;;13.00;6.50;;;;;;;29.40;62.96;101515.13;1780134;80;21041;-56
2022/08/30 04:28:36;;;;;;;12.25;6.58;;;;;;;29.43;63.05;101510.84;1781925;80;21066;-56
2022/08/30 04:31:14;;;;;;;15.65;6.10;;;;;;;29.47;63.18;101509.58;1780056;80;21037;-56
2022/08/30 04:33:42;;;;;;;13.03;5.60;;;;;;;29.50;63.27;101516.00;1780097;80;21018;-56
2022/08/30 04:36:09;;;;;;;13.95;5.50;;;;;;;29.53;63.27;101521.10;1781201;80;21554;-56
2022/08/30 04:38:36;;;;;;;12.85;5.35;;;;;;;29.57;63.29;101513.14;1788158;80;21041;-56
2022/08/30 04:41:15;;;;;;;13.65;5.33;;;;;;;29.61;63.41;101513.22;1789836;80;21011;-57
2022/08/30 04:43:43;;;;;;;14.75;5.92;;;;;;;29.64;63.50;101518.29;1784421;80;21462;-56
2022/08/30 04:46:10;;;;;;;14.75;5.42;;;;;;;29.68;63.63;101516.55;1779397;80;21663;-56
2022/08/30 04:48:37;;;;;;;11.53;5.78;;;;;;;29.72;63.66;101516.66;1771604;81;21050;-56
2022/08/30 04:51:09;;;;;;;17.87;6.03;;;;;;;29.78;63.72;101524.63;1758428;81;21019;-56
2022/08/30 04:53:36;;;;;;;11.93;4.80;;;;;;;29.82;63.80;101522.03;1774066;81;21002;-56
2022/08/30 04:56:10;;;;;;;13.50;5.45;;;;;;;29.86;63.80;101523.48;1768014;81;21023;-56
2022/08/30 04:58:37;;;;;;;16.00;5.33;;;;;;;29.90;63.84;101528.92;1739409;82;21519;-56
2022/08/30 05:01:04;;;;;;;13.85;4.78;;;;;;;29.93;63.90;101529.11;1740147;82;21023;-56
2022/08/30 05:03:31;;;;;;;13.75;5.33;;;;;;;29.98;63.88;101524.19;1734693;82;21023;-56
2022/08/30 05:05:58;;;;;;;17.27;5.28;;;;;;;30.00;63.78;101517.70;1749505;82;21038;-56
2022/08/30 05:08:25;;;;;;;17.60;5.40;;;;;;;30.03;63.79;101520.09;1736214;82;21499;-56
2022/08/30 05:10:52;;;;;;;15.98;5.58;;;;;;;30.06;63.72;101522.52;1736324;82;21554;-56
2022/08/30 05:13:20;;;;;;;10.75;4.62;;;;;;;30.11;63.73;101526.95;1745719;82;21019;-56
2022/08/30 05:15:47;;;;;;;18.55;5.05;;;;;;;30.13;63.73;101529.00;1739050;82;21022;-56
2022/08/30 05:18:14;;;;;;;13.08;5.75;;;;;;;30.15;63.71;101531.05;1747632;82;21077;-56
2022/08/30 05:20:42;;;;;;;15.68;5.20;;;;;;;30.19;63.69;101529.77;1738266;82;21046;-56
2022/08/30 05:23:09;;;;;;;19.52;6.00;;;;;;;30.22;63.65;101537.56;1729832;82;21530;-56
2022/08/30 05:25:38;;;;;;;17.25;5.22;;;;;;;30.26;63.54;101540.31;1737132;82;21031;-56
2022/08/30 05:28:05;;;;;;;18.95;5.40;;;;;;;30.29;63.47;101540.08;1737491;82;21078;-56
2022/08/30 05:30:33;;;;;;;20.62;6.05;;;;;;;30.31;63.29;101540.79;1744293;82;21585;-56
2022/08/30 05:33:01;;;;;;;13.72;5.42;;;;;;;30.35;63.31;101534.14;1736410;82;21498;-56
2022/08/30 05:35:28;;;;;;;20.20;5.47;;;;;;;30.38;63.30;101541.91;1749668;82;21074;-56
2022/08/30 05:37:55;;;;;;;11.68;4.70;;;;;;;30.42;63.29;101541.11;1738617;82;21070;-56
2022/08/30 05:40:22;;;;;;;15.55;5.47;;;;;;;30.45;63.23;101548.41;1734335;82;21047;-56
2022/08/30 05:42:48;;;;;;;16.67;5.30;;;;;;;30.48;63.27;101544.57;1742154;82;21102;-56
2022/08/30 05:45:15;;;;;;;15.18;5.85;;;;;;;30.52;63.24;101546.84;1723518;82;21082;-56
2022/08/30 05:47:42;;;;;;;16.95;6.17;;;;;;;30.56;63.23;101545.22;1730629;82;21095;-56
2022/08/30 05:50:09;;;;;;;15.78;6.05;;;;;;;30.59;63.19;101541.75;1731085;82;21007;-56
2022/08/30 05:52:39;;;;;;;14.87;5.40;;;;;;;30.64;63.20;101539.50;1731741;82;20991;-56
2022/08/30 05:55:07;;;;;;;16.07;5.10;;;;;;;30.70;63.23;101543.44;1728095;82;21079;-56
2022/08/30 05:57:35;;;;;;;16.65;4.97;;;;;;;30.74;63.25;101545.70;1735996;82;20979;-56
2022/08/30 06:00:10;;;;;;;18.02;5.83;;;;;;;30.79;63.26;101546.61;1730555;82;21006;-56
2022/08/30 06:02:40;;;;;;;17.42;6.67;;;;;;;30.85;63.29;101547.41;1732377;82;21030;-56
2022/08/30 06:05:09;;;;;;;15.78;5.67;;;;;;;30.91;63.40;101552.20;1730259;82;21034;-56
2022/08/30 06:07:36;;;;;;;14.15;5.47;;;;;;;30.99;63.40;101544.27;1728392;82;21035;-56
2022/08/30 06:10:05;;;;;;;14.85;6.00;;;;;;;31.09;63.41;101545.08;1698868;84;21526;-55
2022/08/30 06:12:32;;;;;;;15.80;5.90;;;;;;;31.19;62.99;101551.27;1670536;85;21027;-55
2022/08/30 06:14:59;;;;;;;22.17;5.85;;;;;;;31.33;62.48;101548.09;1701597;84;21063;-55
2022/08/30 06:17:26;;;;;;;20.15;6.40;;;;;;;31.51;61.98;101554.41;1737485;82;21503;-57
2022/08/30 06:19:53;;;;;;;19.50;5.42;;;;;;;31.71;61.21;101553.34;1725659;82;21518;-56
2022/08/30 06:22:19;;;;;;;20.77;6.05;;;;;;;31.89;60.17;101548.83;1730153;82;21106;-57
2022/08/30 06:24:46;;;;;;;17.05;5.80;;;;;;;32.01;59.41;101555.72;1726971;82;21039;-57
2022/08/30 06:27:14;;;;;;;17.35;5.80;;;;;;;32.05;59.05;101553.07;1738633;82;21011;-57
2022/08/30 06:29:41;;;;;;;19.30;6.15;;;;;;;32.07;58.98;101549.72;1731912;82;21007;-56
2022/08/30 06:32:08;;;;;;;20.97;5.78;;;;;;;32.08;58.97;101547.39;1728978;82;21022;-57
2022/08/30 06:34:35;;;;;;;16.85;5.47;;;;;;;32.11;58.99;101546.74;1724932;82;21139;-57
2022/08/30 06:37:02;;;;;;;12.82;5.33;;;;;;;32.13;58.93;101550.12;1729364;82;21010;-57
2022/08/30 06:39:29;;;;;;;21.57;5.97;;;;;;;32.14;58.81;101549.11;1733656;82;21043;-56
2022/08/30 06:41:55;;;;;;;12.45;4.78;;;;;;;32.14;58.84;101547.77;1730514;82;21026;-56
2022/08/30 06:44:30;;;;;;;20.60;5.58;;;;;;;32.14;58.83;101549.11;1726988;82;21022;-57
2022/08/30 06:46:57;;;;;;;22.77;6.12;;;;;;;32.13;58.93;101553.64;1729064;82;21589;-56
2022/08/30 06:49:24;;;;;;;18.67;6.10;;;;;;;32.14;58.90;101549.11;1733932;82;21183;-57
2022/08/30 06:51:52;;;;;;;17.65;5.35;;;;;;;32.16;58.82;101553.35;1735249;82;21090;-56
2022/08/30 06:54:19;;;;;;;19.67;5.78;;;;;;;32.17;58.73;101551.52;1716285;83;21111;-57
2022/08/30 06:56:45;;;;;;;25.68;6.22;;;;;;;32.18;58.80;101548.66;1732644;82;21480;-56
2022/08/30 06:59:12;;;;;;;21.60;5.70;;;;;;;32.21;58.71;101558.28;1754545;80;21092;-56
2022/08/30 07:01:40;;;;;;;20.43;5.53;;;;;;;32.22;58.49;101553.23;1766272;80;20995;-56
2022/08/30 07:04:07;;;;;;;16.50;5.40;;;;;;;32.22;58.31;101558.13;1770448;80;21041;-56
2022/08/30 07:06:34;;;;;;;12.45;4.90;;;;;;;32.23;58.07;101557.62;1776599;80;21058;-57
2022/08/30 07:09:01;;;;;;;16.17;4.70;;;;;;;32.23;57.35;101556.28;1777463;80;21506;-56
2022/08/30 07:11:34;;;;;;;14.83;4.78;;;;;;;32.23;56.89;101560.32;1773653;80;22207;-57
2022/08/30 07:14:02;;;;;;;16.15;5.30;;;;;;;32.26;55.88;101563.55;1710069;83;21027;-56
2022/08/30 07:16:29;;;;;;;24.05;6.10;;;;;;;32.32;54.96;101566.97;1712806;83;21082;-56
2022/08/30 07:18:57;;;;;;;23.50;5.00;;;;;;;32.39;55.44;101569.90;1705988;83;21054;-56
2022/08/30 07:21:36;;;;;;;20.60;5.58;;;;;;;32.49;56.36;101566.16;1711555;83;21058;-56
2022/08/30 07:24:04;;;;;;;25.32;5.87;;;;;;;32.57;56.68;101562.67;1709445;83;21070;-56
2022/08/30 07:26:38;;;;;;;17.27;5.65;;;;;;;32.68;56.91;101564.64;1709986;83;21014;-56
2022/08/30 07:29:05;;;;;;;20.40;6.00;;;;;;;32.82;56.99;101565.42;1716797;83;21074;-56
2022/08/30 07:31:33;;;;;;;13.38;5.22;;;;;;;33.02;56.86;101568.78;1702466;83;20986;-56
2022/08/30 07:34:00;;;;;;;19.30;6.12;;;;;;;33.19;56.49;101557.09;1713890;83;21038;-56
2022/08/30 07:36:27;;;;;;;20.02;5.00;;;;;;;33.35;55.81;101558.52;1703331;83;21009;-56
2022/08/30 07:38:54;;;;;;;20.02;4.75;;;;;;;33.42;55.62;101555.53;1708300;83;21078;-56
2022/08/30 07:41:26;;;;;;;20.35;5.60;;;;;;;33.45;55.59;101563.30;1703274;83;21042;-56
2022/08/30 07:43:53;;;;;;;22.27;5.40;;;;;;;33.44;55.52;101558.92;1701477;83;21008;-56
2022/08/30 07:46:21;;;;;;;22.35;5.33;;;;;;;33.44;55.46;101560.77;1701501;83;21589;-56
2022/08/30 07:48:48;;;;;;;20.45;5.15;;;;;;;33.41;55.49;101560.58;1660933;85;21046;-56
2022/08/30 07:51:18;;;;;;;18.02;5.45;;;;;;;33.41;55.59;101563.77;1698116;82;21526;-56
2022/08/30 07:53:45;;;;;;;16.77;5.05;;;;;;;33.39;55.46;101572.03;1742463;82;21573;-56
2022/08/30 07:56:12;;;;;;;22.02;5.67;;;;;;;33.37;55.25;101567.80;1734669;82;20998;-56
2022/08/30 07:58:39;;;;;;;19.57;5.25;;;;;;;33.35;54.73;101565.27;1735432;82;21035;-56
2022/08/30 08:01:08;;;;;;;23.87;5.50;;;;;;;33.33;54.66;101569.13;1737147;82;21077;-56
2022/08/30 08:03:35;;;;;;;20.45;6.28;;;;;;;33.29;54.51;101568.61;1730484;82;21056;-56
2022/08/30 08:06:03;;;;;;;16.05;5.10;;;;;;;33.25;54.72;101559.15;1746650;82;20991;-56
2022/08/30 08:08:30;;;;;;;24.25;5.75;;;;;;;33.24;54.97;101568.23;1733773;82;21553;-56
2022/08/30 08:10:58;;;;;;;15.53;5.47;;;;;;;33.22;54.78;101567.55;1734958;82;21058;-56
2022/08/30 08:13:26;;;;;;;16.62;5.80;;;;;;;33.19;54.50;101567.88;1733784;82;21495;-56
2022/08/30 08:15:54;;;;;;;17.80;5.70;;;;;;;33.17;54.66;101565.00;1730847;82;21550;-56
2022/08/30 08:18:20;;;;;;;20.10;5.53;;;;;;;33.17;54.89;101560.95;1739981;82;21137;-56
2022/08/30 08:20:47;;;;;;;20.30;5.25;;;;;;;33.18;55.13;101564.01;1735198;82;20991;-57
2022/08/30 08:23:14;;;;;;;16.23;5.47;;;;;;;33.18;54.81;101558.08;1737005;82;21494;-56
2022/08/30 08:25:42;;;;;;;16.20;5.45;;;;;;;33.19;54.48;101562.49;1727152;82;21147;-56
2022/08/30 08:28:09;;;;;;;17.75;5.03;;;;;;;33.20;54.50;101562.81;1741273;82;21101;-56
2022/08/30 08:30:37;;;;;;;22.30;5.28;;;;;;;33.21;54.46;101557.78;1738288;82;21082;-56
2022/08/30 08:33:04;;;;;;;15.98;4.35;;;;;;;33.23;54.20;101560.31;1743806;82;21027;-56
2022/08/30 08:35:32;;;;;;;16.57;4.78;;;;;;;33.25;53.96;101560.50;1700251;84;21031;-56
2022/08/30 08:37:59;;;;;;;20.55;5.33;;;;;;;33.27;53.67;101555.78;1701831;84;21110;-56
2022/08/30 08:40:26;;;;;;;23.15;5.03;;;;;;;33.31;53.34;101557.16;1739955;82;21050;-56
2022/08/30 08:43:04;;;;;;;20.32;5.08;;;;;;;33.34;53.14;101554.16;1685930;84;21586;-56
2022/08/30 08:45:55;;;;;;;17.27;5.20;;;;;;;33.38;52.87;101562.27;1698319;84;21030;-56
2022/08/30 08:48:42;;;;;;;14.80;4.67;;;;;;;33.42;52.62;101560.94;1750499;81;21808;-56
2022/08/30 08:54:06;;;;;;;19.62;4.90;;;;;;;33.48;51.58;101553.54;1743896;81;21054;-56
2022/08/30 08:56:32;;;;;;;18.17;5.90;;;;;;;33.51;51.57;101554.58;1746742;81;21010;-56
2022/08/30 08:58:59;;;;;;;25.30;5.92;;;;;;;33.55;51.42;101555.94;1754625;81;21011;-56
2022/08/30 09:01:28;;;;;;;17.42;4.87;;;;;;;33.58;51.30;101555.63;1754069;81;21553;-57
2022/08/30 09:03:57;;;;;;;18.10;4.87;;;;;;;33.61;51.10;101555.29;1748828;81;21007;-56
2022/08/30 09:06:29;;;;;;;14.95;4.95;;;;;;;33.64;50.57;101546.88;1753811;81;20981;-56
2022/08/30 09:08:56;;;;;;;20.48;5.42;;;;;;;33.68;50.36;101557.34;1750904;81;21482;-56
2022/08/30 09:11:27;;;;;;;14.33;4.78;;;;;;;33.69;49.98;101557.69;1751930;81;21042;-56
2022/08/30 09:13:54;;;;;;;16.70;4.83;;;;;;;33.69;49.84;101557.69;1762213;80;21050;-56
2022/08/30 09:16:49;;;;;;;17.20;5.00;;;;;;;33.71;49.69;101559.73;1760114;80;21023;-56
2022/08/30 09:19:35;;;;;;;19.12;5.28;;;;;;;33.71;49.40;101557.88;1647447;86;21062;-56
2022/08/30 09:22:27;;;;;;;20.95;4.72;;;;;;;33.73;48.99;101550.95;1587764;89;21618;-56
2022/08/30 09:25:10;;;;;;;17.62;5.28;;;;;;;33.75;49.16;101550.28;1581382;89;21154;-56
2022/08/30 09:27:45;;;;;;;17.60;5.45;;;;;;;33.76;48.98;101552.00;1564614;90;21661;-56
2022/08/30 09:30:27;;;;;;;24.27;6.10;;;;;;;33.77;48.57;101557.72;1582399;89;21138;-56
2022/08/30 09:33:16;;;;;;;16.37;4.87;;;;;;;33.75;48.08;101557.03;1509258;94;21076;-57
2022/08/30 09:35:47;;;;;;;18.85;5.62;;;;;;;33.72;48.13;101560.08;1504529;94;21657;-56
2022/08/30 09:38:29;;;;;;;18.98;5.45;;;;;;;33.74;48.32;101560.77;1430636;99;21175;-57
2022/08/30 09:40:58;;;;;;;20.40;4.83;;;;;;;33.77;47.88;101564.47;1427626;99;21093;-56
2022/08/30 09:43:31;;;;;;;11.45;4.55;;;;;;;33.79;47.71;101558.40;1447050;99;21148;-56
2022/08/30 09:46:04;;;;;;;12.98;4.87;;;;;;;33.83;47.61;101561.11;1417871;99;21195;-56
2022/08/30 09:48:43;;;;;;;15.50;5.15;;;;;;;33.86;47.32;101559.45;1426320;100;21153;-56
2022/08/30 09:51:18;;;;;;;15.23;5.75;;;;;;;33.89;47.39;101557.75;1423603;99;21148;-56
2022/08/30 09:54:17;;;;;;;17.92;4.25;;;;;;;33.94;47.46;101560.81;1419942;99;21674;-56
2022/08/30 09:57:05;;;;;;;17.37;4.65;;;;;;;33.96;46.69;101557.44;1433397;97;21213;-56
2022/08/30 09:59:46;;;;;;;19.10;4.90;;;;;;;33.99;45.92;101558.45;1482005;95;21611;-56
2022/08/30 10:02:45;;;;;;;18.05;4.75;;;;;;;33.98;46.20;101553.58;1493857;95;21682;-56
2022/08/30 10:05:35;;;;;;;20.70;5.45;;;;;;;34.00;45.53;101552.09;1491684;95;21109;-56
2022/08/30 10:08:17;;;;;;;;;;;;;;;34.00;45.10;101552.09;1497097;95;21088;-56
2022/08/30 10:11:13;;;;;;;18.37;4.78;;;;;;;34.00;44.83;101555.64;1490027;95;20136;-57
2022/08/30 10:14:16;;;;;;;23.60;5.12;;;;;;;34.01;45.45;101551.06;1477063;96;21111;-56
2022/08/30 10:17:06;;;;;;;17.07;5.20;;;;;;;34.02;46.44;101556.31;1476923;96;21106;-56
2022/08/30 10:19:51;;;;;;;17.73;5.17;;;;;;;34.02;46.83;101552.77;1478102;96;21332;-56
2022/08/30 10:22:36;;;;;;;16.55;5.10;;;;;;;34.02;46.94;101550.06;1476285;96;21135;-57
2022/08/30 10:25:24;;;;;;;17.80;5.22;;;;;;;34.02;47.04;101548.71;1486451;95;21110;-56
2022/08/30 10:28:06;;;;;;;20.05;5.55;;;;;;;34.03;46.79;101543.63;1490551;94;21093;-56
2022/08/30 10:30:38;;;;;;;19.40;5.58;;;;;;;34.06;47.06;101543.31;1504052;94;21144;-56
2022/08/30 10:33:11;;;;;;;;;;;;;;;34.08;47.18;101540.80;1520264;91;21067;-56
2022/08/30 10:35:49;;;;;;;17.70;4.00;;;;;;;34.12;46.98;101546.70;1520715;92;20110;-57
2022/08/30 10:38:23;;;;;;;19.95;4.90;;;;;;;34.19;47.13;101549.09;1480977;95;21043;-54
2022/08/30 10:41:13;;;;;;;21.27;5.70;;;;;;;34.18;46.91;101541.98;1477403;95;21746;-55
2022/08/30 10:44:19;;;;;;;15.95;5.10;;;;;;;34.21;46.87;101543.02;1421458;101;21040;-56
2022/08/30 10:47:25;;;;;;;16.80;4.53;;;;;;;34.23;46.60;101542.34;1424253;99;22064;-56
2022/08/30 10:50:06;;;;;;;19.42;5.37;;;;;;;34.24;46.79;101539.95;1383590;102;21149;-56
2022/08/30 10:53:08;;;;;;;21.77;5.17;;;;;;;34.24;47.24;101537.26;1400883;101;21132;-56
2022/08/30 10:55:44;;;;;;;19.40;4.97;;;;;;;34.24;47.27;101535.91;1414490;100;21123;-56
2022/08/30 10:58:10;;;;;;;22.40;5.08;;;;;;;34.20;47.53;101530.00;1378277;104;21212;-56
2022/08/30 11:01:06;;;;;;;26.33;5.37;;;;;;;34.19;47.46;101529.65;1402594;102;21621;-56
2022/08/30 11:03:41;;;;;;;27.85;5.70;;;;;;;34.21;47.62;101533.55;1414477;100;21108;-56
2022/08/30 11:06:28;;;;;;;18.32;4.83;;;;;;;34.21;47.81;101528.16;1389768;101;21137;-56
2022/08/30 11:09:07;;;;;;;17.95;4.95;;;;;;;34.22;47.75;101524.42;1414301;100;21088;-56
2022/08/30 11:11:49;;;;;;;21.25;4.83;;;;;;;34.24;47.48;101519.70;1339467;106;21301;-56
2022/08/30 11:14:17;;;;;;;15.50;4.60;;;;;;;34.27;47.57;101518.84;1363071;103;21169;-56
2022/08/30 11:16:50;;;;;;;19.82;5.10;;;;;;;34.30;47.55;101523.08;1374448;103;21118;-56
2022/08/30 11:19:26;;;;;;;19.75;5.40;;;;;;;34.31;47.61;101512.09;1381969;103;21607;-56
2022/08/30 11:22:30;;;;;;;21.17;5.12;;;;;;;34.32;47.24;101508.89;1421948;95;21180;-56
2022/08/30 11:25:04;;;;;;;19.52;4.90;;;;;;;34.31;45.99;101504.52;1480362;95;21172;-56
2022/08/30 11:27:50;;;;;;;19.65;5.30;;;;;;;34.28;44.18;101502.14;1437995;98;21092;-56
2022/08/30 11:30:29;;;;;;;22.20;5.35;;;;;;;34.25;43.67;101497.09;1468769;96;21107;-56
2022/08/30 11:33:04;;;;;;;14.55;5.05;;;;;;;34.23;44.39;101501.28;1478406;95;21146;-56
2022/08/30 11:35:41;;;;;;;15.78;4.80;;;;;;;34.21;44.51;101493.03;1536211;90;21113;-56
2022/08/30 11:38:28;;;;;;;17.92;5.15;;;;;;;34.19;44.96;101489.66;1558437;90;21146;-56